Terminal Aerodrome Forecast
Issued by NWS

Home | Current Version | Previous Version | Text Only | Print | Product List | Glossary On
Versions: 1 2 3 4 5 6 7 8 9 10 11 12
000
FTUS42 TJSJ 222300
TAFIST
TAF
TIST 222337Z 2300/2324 09006KT P6SM VCSH FEW025
      TEMPO 2300/2301 -SHRA BKN028
     FM231300 10013KT P6SM SCT025
     FM232300 08008KT P6SM FEW025
      AMD NOT SKED=

USA.gov is the U.S. government's official web portal to all federal, state and local government web resources and services.